Time;durP1;ratioP1;P1;durP2;ratioP2;P2;SDS_P1;SDS_P2;PMS_P1;PMS_P2;Temp;Humidity;BMP_temperature;BMP_pressure;BME280_temperature;BME280_humidity;BME280_pressure;Samples;Min_cycle;Max_cycle;Signal;HPM_P1;HPM_P2
2023/01/27 00:01:14;;;;;;;15.55;7.53;;;;;;;;;;5084473;28;20119;-59
2023/01/27 00:03:40;;;;;;;14.82;6.43;;;;;;;;;;5080399;28;20051;-60
2023/01/27 00:06:10;;;;;;;14.50;6.45;;;;;;;;;;5078682;28;20036;-58
2023/01/27 00:08:36;;;;;;;13.00;6.90;;;;;;;;;;5079897;28;20083;-59
2023/01/27 00:13:47;;;;;;;16.30;7.75;;;;;;;;;;5078979;28;20055;-59
2023/01/27 00:16:13;;;;;;;12.98;6.57;;;;;;;;;;5080844;28;20032;-58
2023/01/27 00:18:39;;;;;;;14.95;7.05;;;;;;;;;;5081101;28;20040;-58
2023/01/27 00:26:34;;;;;;;13.15;7.40;;;;;;;;;;5079433;28;20039;-57
2023/01/27 00:29:00;;;;;;;12.15;7.18;;;;;;;;;;5081533;28;20119;-58
2023/01/27 00:34:11;;;;;;;;;;;;;;;;;;5079846;28;20077;-57
2023/01/27 00:36:38;;;;;;;14.70;8.05;;;;;;;;;;5082290;28;19916;-59
2023/01/27 00:39:05;;;;;;;16.73;8.70;;;;;;;;;;5082049;28;20102;-57
2023/01/27 00:41:32;;;;;;;15.60;8.45;;;;;;;;;;5081677;28;20036;-57
2023/01/27 00:43:58;;;;;;;17.23;9.38;;;;;;;;;;5060889;28;20980;-57
2023/01/27 00:46:24;;;;;;;12.02;8.90;;;;;;;;;;5080676;28;20437;-59
2023/01/27 00:48:51;;;;;;;16.10;9.55;;;;;;;;;;5081231;28;20040;-56
2023/01/27 00:51:17;;;;;;;14.40;9.18;;;;;;;;;;5081901;28;20440;-58
2023/01/27 00:53:44;;;;;;;11.60;7.57;;;;;;;;;;5081326;28;20044;-58
2023/01/27 00:56:10;;;;;;;13.98;9.45;;;;;;;;;;5080469;28;20440;-58
2023/01/27 00:58:36;;;;;;;16.42;9.70;;;;;;;;;;5079954;28;20135;-59
2023/01/27 01:01:03;;;;;;;13.57;9.77;;;;;;;;;;5083161;28;20032;-58
2023/01/27 01:03:30;;;;;;;13.80;9.45;;;;;;;;;;5080224;28;20036;-59
2023/01/27 01:06:01;;;;;;;16.33;10.20;;;;;;;;;;5078277;28;20228;-58
2023/01/27 01:08:27;;;;;;;13.57;8.70;;;;;;;;;;5079989;28;20091;-59
2023/01/27 01:10:53;;;;;;;14.27;9.05;;;;;;;;;;5080701;28;20350;-57
2023/01/27 01:13:20;;;;;;;15.65;9.70;;;;;;;;;;5080567;28;20371;-58
2023/01/27 01:15:46;;;;;;;14.40;8.18;;;;;;;;;;5080774;28;20056;-60
2023/01/27 01:18:13;;;;;;;13.15;9.75;;;;;;;;;;5079822;28;20032;-57
2023/01/27 01:20:40;;;;;;;14.02;10.05;;;;;;;;;;5079637;28;20049;-60
2023/01/27 01:23:06;;;;;;;11.50;9.30;;;;;;;;;;5082583;28;20444;-60
2023/01/27 01:25:33;;;;;;;12.95;8.93;;;;;;;;;;5076735;28;20043;-58
2023/01/27 01:27:59;;;;;;;15.00;10.05;;;;;;;;;;5080797;28;20051;-58
2023/01/27 01:30:26;;;;;;;14.15;9.50;;;;;;;;;;5082804;28;20380;-58
2023/01/27 01:32:54;;;;;;;12.50;10.00;;;;;;;;;;5076183;28;20448;-58
2023/01/27 01:35:21;;;;;;;14.35;9.45;;;;;;;;;;5077654;28;20068;-56
2023/01/27 01:37:47;;;;;;;10.80;9.35;;;;;;;;;;5064736;28;20062;-58
2023/01/27 01:40:14;;;;;;;13.38;9.00;;;;;;;;;;5080473;28;20466;-58
2023/01/27 01:42:52;;;;;;;10.43;8.27;;;;;;;;;;5079746;28;20080;-58
2023/01/27 01:45:35;;;;;;;12.43;7.38;;;;;;;;;;5077600;28;20032;-58
2023/01/27 01:48:13;;;;;;;10.70;6.90;;;;;;;;;;5079217;28;20067;-58
2023/01/27 01:50:40;;;;;;;9.93;7.18;;;;;;;;;;5079850;28;20441;-58
2023/01/27 01:53:06;;;;;;;8.80;6.00;;;;;;;;;;5083103;28;20048;-60
2023/01/27 01:55:33;;;;;;;9.98;7.32;;;;;;;;;;5078472;28;20360;-60
2023/01/27 01:58:00;;;;;;;8.30;6.47;;;;;;;;;;5079513;28;20466;-59
2023/01/27 02:00:26;;;;;;;9.18;6.13;;;;;;;;;;5082895;28;21234;-58
2023/01/27 02:02:53;;;;;;;8.63;5.93;;;;;;;;;;5077526;28;20453;-58
2023/01/27 02:05:24;;;;;;;9.00;6.05;;;;;;;;;;5077358;28;20056;-57
2023/01/27 02:08:09;;;;;;;8.80;4.70;;;;;;;;;;5082930;28;20036;-58
2023/01/27 02:10:35;;;;;;;6.53;4.55;;;;;;;;;;5077983;28;20044;-58
2023/01/27 02:13:01;;;;;;;7.35;4.65;;;;;;;;;;5064318;28;20074;-58
2023/01/27 02:15:28;;;;;;;7.38;5.40;;;;;;;;;;5079464;28;20361;-59
2023/01/27 02:17:54;;;;;;;6.45;4.75;;;;;;;;;;5080589;28;20613;-58
2023/01/27 02:20:27;;;;;;;7.32;4.78;;;;;;;;;;5080038;28;20050;-59
2023/01/27 02:23:03;;;;;;;8.00;4.80;;;;;;;;;;5082205;28;20037;-58
2023/01/27 02:25:36;;;;;;;5.85;4.22;;;;;;;;;;5082539;28;20046;-59
2023/01/27 02:28:02;;;;;;;6.47;5.03;;;;;;;;;;5083645;28;20131;-58
2023/01/27 02:30:29;;;;;;;8.43;4.68;;;;;;;;;;5086494;28;20040;-59
2023/01/27 02:32:55;;;;;;;7.28;5.13;;;;;;;;;;5083685;28;20431;-58
2023/01/27 02:35:33;;;;;;;9.25;4.95;;;;;;;;;;5081068;28;20067;-58
2023/01/27 02:38:05;;;;;;;8.68;5.50;;;;;;;;;;5082027;28;20071;-58
2023/01/27 02:40:32;;;;;;;9.15;5.88;;;;;;;;;;5079271;28;20350;-59
2023/01/27 02:42:59;;;;;;;6.88;5.35;;;;;;;;;;5081105;28;20040;-58
2023/01/27 02:45:25;;;;;;;10.15;6.00;;;;;;;;;;5082988;28;20083;-59
2023/01/27 02:47:51;;;;;;;7.85;5.75;;;;;;;;;;5079929;28;20040;-56
2023/01/27 02:50:17;;;;;;;7.78;6.15;;;;;;;;;;5084476;28;20032;-60
2023/01/27 02:52:43;;;;;;;8.77;5.72;;;;;;;;;;5082986;28;20397;-58
2023/01/27 02:55:09;;;;;;;8.85;6.38;;;;;;;;;;5082366;28;20036;-58
2023/01/27 02:57:35;;;;;;;7.88;5.60;;;;;;;;;;5084490;28;20093;-59
2023/01/27 03:00:02;;;;;;;9.25;5.68;;;;;;;;;;5084055;28;20036;-61
2023/01/27 03:02:29;;;;;;;8.82;5.72;;;;;;;;;;5083532;28;20064;-60
2023/01/27 03:04:58;;;;;;;8.32;5.38;;;;;;;;;;5081032;28;20148;-60
2023/01/27 03:07:24;;;;;;;7.18;5.00;;;;;;;;;;5082741;28;20459;-58
2023/01/27 03:09:50;;;;;;;7.93;5.03;;;;;;;;;;5082786;28;20043;-59
2023/01/27 03:12:20;;;;;;;8.13;5.20;;;;;;;;;;5083549;28;20359;-59
2023/01/27 03:20:21;;;;;;;9.60;4.65;;;;;;;;;;5080308;28;20055;-58
2023/01/27 03:22:47;;;;;;;6.47;3.88;;;;;;;;;;5082911;28;20149;-59
2023/01/27 03:25:13;;;;;;;6.30;3.67;;;;;;;;;;5080921;28;20064;-60
2023/01/27 03:27:38;;;;;;;6.72;3.50;;;;;;;;;;5083687;28;20036;-58
2023/01/27 03:30:05;;;;;;;5.30;3.33;;;;;;;;;;5082536;28;20051;-58
2023/01/27 03:32:31;;;;;;;7.07;3.80;;;;;;;;;;5079180;28;20032;-58
2023/01/27 03:34:57;;;;;;;4.28;2.72;;;;;;;;;;5078470;28;20387;-57
2023/01/27 03:48:30;;;;;;;4.15;2.50;;;;;;;;;;5046342;28;20079;-59
2023/01/27 03:50:57;;;;;;;5.00;2.45;;;;;;;;;;5062061;28;20495;-59
2023/01/27 03:53:24;;;;;;;5.30;2.70;;;;;;;;;;5063168;28;20062;-55
2023/01/27 03:55:50;;;;;;;4.32;2.40;;;;;;;;;;5062285;28;20075;-58
2023/01/27 03:58:18;;;;;;;4.57;2.10;;;;;;;;;;5060553;28;20036;-58
2023/01/27 04:00:45;;;;;;;2.63;2.00;;;;;;;;;;5044236;28;20045;-58
2023/01/27 04:08:43;;;;;;;2.55;1.77;;;;;;;;;;5059176;28;20095;-58
2023/01/27 04:13:53;;;;;;;3.45;1.73;;;;;;;;;;5060085;28;20048;-60
2023/01/27 04:16:27;;;;;;;3.78;2.13;;;;;;;;;;5061354;28;20504;-58
2023/01/27 04:18:54;;;;;;;4.70;2.00;;;;;;;;;;5059490;28;20063;-59
2023/01/27 04:21:20;;;;;;;2.28;1.90;;;;;;;;;;5062139;28;20279;-57
2023/01/27 04:23:48;;;;;;;3.38;1.88;;;;;;;;;;5064000;28;20048;-60
2023/01/27 04:26:14;;;;;;;4.03;1.95;;;;;;;;;;5060845;28;20305;-58
2023/01/27 04:28:40;;;;;;;5.45;2.22;;;;;;;;;;5061290;28;20033;-57
2023/01/27 04:31:06;;;;;;;3.30;2.10;;;;;;;;;;5061907;28;20106;-61
2023/01/27 04:33:32;;;;;;;2.72;1.80;;;;;;;;;;5062160;28;20449;-58
2023/01/27 04:35:58;;;;;;;3.33;2.17;;;;;;;;;;5059196;28;20044;-58
2023/01/27 04:38:24;;;;;;;4.07;2.30;;;;;;;;;;5069813;28;20044;-58
2023/01/27 04:40:57;;;;;;;5.00;2.25;;;;;;;;;;5080492;28;20037;-58
2023/01/27 04:43:23;;;;;;;3.50;2.30;;;;;;;;;;5079785;28;20044;-59
2023/01/27 04:45:49;;;;;;;2.83;1.80;;;;;;;;;;5081621;28;20033;-60
2023/01/27 04:48:15;;;;;;;4.70;2.38;;;;;;;;;;5081841;28;20082;-58
2023/01/27 04:50:41;;;;;;;6.57;2.30;;;;;;;;;;5081160;28;20047;-59
2023/01/27 04:53:07;;;;;;;4.63;2.50;;;;;;;;;;5083700;28;20506;-60
2023/01/27 04:55:34;;;;;;;2.70;1.90;;;;;;;;;;5079117;28;20037;-60
2023/01/27 04:58:00;;;;;;;4.15;2.38;;;;;;;;;;5082029;28;20490;-59
2023/01/27 05:00:26;;;;;;;3.63;2.05;;;;;;;;;;5082941;28;20044;-60
2023/01/27 05:02:53;;;;;;;6.05;2.20;;;;;;;;;;5062496;28;20033;-59
2023/01/27 05:05:19;;;;;;;2.42;1.83;;;;;;;;;;5078532;28;20155;-59
2023/01/27 05:07:45;;;;;;;3.60;2.05;;;;;;;;;;5083534;28;20059;-59
2023/01/27 05:10:11;;;;;;;4.47;2.10;;;;;;;;;;5080307;28;20443;-59
2023/01/27 05:12:37;;;;;;;3.38;2.05;;;;;;;;;;5080830;28;20036;-59
2023/01/27 05:15:03;;;;;;;5.45;2.33;;;;;;;;;;5079699;28;20043;-59
2023/01/27 05:17:33;;;;;;;3.92;2.10;;;;;;;;;;5080305;28;20036;-61
2023/01/27 05:19:59;;;;;;;6.88;2.20;;;;;;;;;;5082256;28;20093;-58
2023/01/27 05:22:25;;;;;;;6.32;2.17;;;;;;;;;;5048334;28;20052;-57
2023/01/27 05:24:51;;;;;;;2.88;1.92;;;;;;;;;;5081126;28;20448;-60
2023/01/27 05:27:17;;;;;;;4.55;2.17;;;;;;;;;;5080600;28;20042;-58
2023/01/27 05:29:43;;;;;;;4.15;2.13;;;;;;;;;;5081184;28;20115;-58
2023/01/27 05:32:09;;;;;;;4.35;2.25;;;;;;;;;;5060861;28;20070;-59
2023/01/27 05:34:35;;;;;;;4.82;2.10;;;;;;;;;;5081749;28;20044;-59
2023/01/27 05:37:01;;;;;;;5.07;2.58;;;;;;;;;;5082011;28;20052;-59
2023/01/27 05:39:30;;;;;;;3.15;2.30;;;;;;;;;;5081894;28;20131;-60
2023/01/27 05:42:03;;;;;;;5.05;2.20;;;;;;;;;;5081062;28;20040;-58
2023/01/27 05:44:30;;;;;;;4.18;2.17;;;;;;;;;;5079410;28;20105;-59
2023/01/27 05:46:56;;;;;;;3.28;2.17;;;;;;;;;;5081493;28;20044;-59
2023/01/27 05:49:22;;;;;;;5.80;2.47;;;;;;;;;;5081271;28;20108;-59
2023/01/27 05:51:48;;;;;;;6.22;2.72;;;;;;;;;;5081560;28;20405;-60
2023/01/27 05:54:14;;;;;;;5.07;2.35;;;;;;;;;;5079472;28;20036;-59
2023/01/27 05:56:40;;;;;;;6.65;2.25;;;;;;;;;;5080908;28;20032;-58
2023/01/27 05:59:06;;;;;;;6.30;2.40;;;;;;;;;;5072694;28;20063;-59
2023/01/27 06:01:33;;;;;;;4.57;2.40;;;;;;;;;;5073255;28;20379;-59
2023/01/27 06:04:01;;;;;;;4.75;2.20;;;;;;;;;;5074192;28;20364;-61
2023/01/27 06:06:28;;;;;;;5.88;2.60;;;;;;;;;;5064447;28;20036;-60
2023/01/27 06:08:54;;;;;;;4.05;2.20;;;;;;;;;;5066940;28;20047;-60
2023/01/27 06:11:21;;;;;;;9.13;2.50;;;;;;;;;;5078829;28;20040;-60
2023/01/27 06:13:47;;;;;;;4.90;2.42;;;;;;;;;;5085392;28;20123;-60
2023/01/27 06:16:16;;;;;;;4.03;2.38;;;;;;;;;;5083524;28;20052;-59
2023/01/27 06:18:42;;;;;;;3.47;2.08;;;;;;;;;;5085441;28;20452;-60
2023/01/27 06:21:08;;;;;;;4.65;2.20;;;;;;;;;;5084122;28;20036;-60
2023/01/27 06:23:39;;;;;;;3.92;2.45;;;;;;;;;;5084604;28;20036;-59
2023/01/27 06:26:12;;;;;;;4.97;2.03;;;;;;;;;;5084622;28;20055;-59
2023/01/27 06:28:39;;;;;;;4.47;2.05;;;;;;;;;;5083966;28;20135;-59
2023/01/27 06:31:06;;;;;;;3.92;1.85;;;;;;;;;;5083202;28;20037;-60
2023/01/27 06:33:32;;;;;;;3.92;2.20;;;;;;;;;;5081930;28;20075;-59
2023/01/27 06:36:02;;;;;;;3.95;2.42;;;;;;;;;;5084714;28;20072;-61
2023/01/27 06:38:34;;;;;;;5.40;2.20;;;;;;;;;;5084733;28;20149;-58
2023/01/27 06:41:03;;;;;;;5.60;2.03;;;;;;;;;;5083967;28;20371;-60
2023/01/27 06:43:29;;;;;;;4.15;2.08;;;;;;;;;;5081886;28;20044;-60
2023/01/27 06:45:58;;;;;;;2.67;1.80;;;;;;;;;;5082776;28;20054;-61
2023/01/27 06:48:24;;;;;;;4.57;1.98;;;;;;;;;;5083950;28;20097;-60
2023/01/27 06:50:50;;;;;;;4.20;2.38;;;;;;;;;;5065081;28;20121;-61
2023/01/27 06:53:16;;;;;;;4.95;2.40;;;;;;;;;;5067703;28;20412;-59
2023/01/27 06:55:43;;;;;;;3.38;2.00;;;;;;;;;;5082964;28;20127;-58
2023/01/27 06:58:10;;;;;;;10.23;2.50;;;;;;;;;;5065462;28;20345;-58
2023/01/27 07:00:36;;;;;;;5.10;2.17;;;;;;;;;;5083178;28;20093;-61
2023/01/27 07:03:03;;;;;;;4.90;1.90;;;;;;;;;;5068386;28;20046;-61
2023/01/27 07:05:29;;;;;;;5.13;2.30;;;;;;;;;;5084418;28;20447;-61
2023/01/27 07:07:55;;;;;;;3.85;2.20;;;;;;;;;;5089339;28;20131;-59
2023/01/27 07:10:21;;;;;;;7.35;2.55;;;;;;;;;;5086860;28;20032;-59
2023/01/27 07:12:47;;;;;;;4.68;2.45;;;;;;;;;;5065322;28;20051;-60
2023/01/27 07:15:13;;;;;;;5.15;2.78;;;;;;;;;;5081153;28;20036;-60
2023/01/27 07:17:39;;;;;;;5.05;2.70;;;;;;;;;;5084362;28;20040;-56
2023/01/27 07:20:06;;;;;;;5.82;2.50;;;;;;;;;;5071554;28;20099;-58
2023/01/27 07:22:34;;;;;;;5.07;2.90;;;;;;;;;;5063003;28;20055;-58
2023/01/27 07:24:59;;;;;;;5.07;2.40;;;;;;;;;;5063549;28;20464;-60
2023/01/27 07:27:28;;;;;;;5.82;2.97;;;;;;;;;;5064748;28;20037;-57
2023/01/27 07:29:59;;;;;;;6.55;2.50;;;;;;;;;;5064523;28;20550;-61
2023/01/27 07:32:25;;;;;;;3.97;2.33;;;;;;;;;;5049503;28;20057;-58
2023/01/27 07:34:51;;;;;;;5.97;2.70;;;;;;;;;;5081524;28;20031;-59
2023/01/27 07:37:18;;;;;;;5.20;2.70;;;;;;;;;;5092371;28;20036;-61
2023/01/27 07:39:47;;;;;;;5.45;2.72;;;;;;;;;;5071930;28;20094;-60
2023/01/27 07:42:13;;;;;;;5.85;3.20;;;;;;;;;;5072682;28;20341;-59
2023/01/27 07:44:39;;;;;;;5.63;2.70;;;;;;;;;;5085259;28;20112;-60
2023/01/27 07:47:05;;;;;;;3.80;2.70;;;;;;;;;;5087448;28;20527;-60
2023/01/27 07:49:31;;;;;;;5.38;3.13;;;;;;;;;;5085364;28;20075;-59
2023/01/27 07:51:57;;;;;;;6.15;2.92;;;;;;;;;;5079673;28;20048;-58
2023/01/27 07:54:24;;;;;;;7.22;2.67;;;;;;;;;;5080830;28;20040;-57
2023/01/27 07:56:49;;;;;;;6.07;3.00;;;;;;;;;;5082771;28;20552;-58
2023/01/27 07:59:15;;;;;;;6.05;2.70;;;;;;;;;;5080030;28;20082;-58
2023/01/27 08:01:43;;;;;;;4.78;2.63;;;;;;;;;;5082435;28;20448;-61
2023/01/27 08:04:09;;;;;;;4.85;2.28;;;;;;;;;;5079182;28;20462;-58
2023/01/27 08:06:37;;;;;;;7.43;3.00;;;;;;;;;;5080380;28;20075;-58
2023/01/27 08:09:03;;;;;;;5.18;2.92;;;;;;;;;;5083104;28;20436;-59
2023/01/27 08:11:29;;;;;;;7.00;3.13;;;;;;;;;;5083447;28;20050;-59
2023/01/27 08:13:55;;;;;;;7.15;2.70;;;;;;;;;;5082875;28;20044;-59
2023/01/27 08:16:21;;;;;;;9.48;3.20;;;;;;;;;;5078768;28;20032;-59
2023/01/27 08:18:47;;;;;;;5.55;2.47;;;;;;;;;;5081556;28;20425;-59
2023/01/27 08:21:13;;;;;;;5.38;2.40;;;;;;;;;;5080639;28;20036;-59
2023/01/27 08:23:39;;;;;;;7.15;2.60;;;;;;;;;;5089226;28;20036;-58
2023/01/27 08:26:05;;;;;;;4.70;2.38;;;;;;;;;;5083511;28;20408;-60
2023/01/27 08:28:38;;;;;;;6.43;2.60;;;;;;;;;;5084423;28;20048;-58
2023/01/27 08:31:08;;;;;;;6.43;2.50;;;;;;;;;;5083503;28;20048;-58
2023/01/27 08:33:34;;;;;;;5.53;2.15;;;;;;;;;;5078514;28;20051;-60
2023/01/27 08:36:04;;;;;;;4.70;1.98;;;;;;;;;;5081638;28;20040;-60
2023/01/27 08:38:30;;;;;;;5.20;2.30;;;;;;;;;;5080863;28;20133;-58
2023/01/27 08:40:58;;;;;;;5.47;2.20;;;;;;;;;;5083094;28;20558;-59
2023/01/27 08:43:27;;;;;;;5.53;2.22;;;;;;;;;;5081367;28;20430;-60
2023/01/27 08:45:55;;;;;;;6.57;2.30;;;;;;;;;;5079616;28;20437;-61
2023/01/27 08:48:21;;;;;;;5.60;2.30;;;;;;;;;;5062195;28;20127;-57
2023/01/27 08:50:49;;;;;;;4.30;2.20;;;;;;;;;;5082961;28;20079;-57
2023/01/27 08:53:15;;;;;;;6.63;2.00;;;;;;;;;;5062516;28;20075;-60
2023/01/27 08:55:42;;;;;;;5.10;2.17;;;;;;;;;;5079120;28;20036;-59
2023/01/27 08:58:08;;;;;;;6.35;2.67;;;;;;;;;;5080808;28;20524;-58
2023/01/27 09:00:34;;;;;;;6.43;2.08;;;;;;;;;;5081162;28;20064;-59
2023/01/27 09:03:00;;;;;;;4.22;1.90;;;;;;;;;;5082343;28;20447;-59
2023/01/27 09:05:26;;;;;;;6.97;2.30;;;;;;;;;;5079837;28;20106;-59
2023/01/27 09:07:52;;;;;;;4.80;2.13;;;;;;;;;;5059197;28;20040;-58
2023/01/27 09:10:18;;;;;;;3.63;1.85;;;;;;;;;;5081595;28;20036;-59
2023/01/27 09:12:45;;;;;;;3.35;1.73;;;;;;;;;;5080733;28;20032;-58
2023/01/27 09:15:11;;;;;;;6.03;2.40;;;;;;;;;;5080963;28;20376;-59
2023/01/27 09:17:37;;;;;;;3.65;1.80;;;;;;;;;;5080245;28;20514;-58
2023/01/27 09:20:04;;;;;;;4.00;2.35;;;;;;;;;;5081349;28;20191;-59
2023/01/27 09:22:30;;;;;;;3.63;1.95;;;;;;;;;;5078566;28;20441;-57
2023/01/27 09:24:56;;;;;;;7.78;2.30;;;;;;;;;;5081212;28;20075;-59
2023/01/27 09:27:22;;;;;;;5.97;2.08;;;;;;;;;;5079044;28;20432;-59
2023/01/27 09:29:48;;;;;;;4.53;2.05;;;;;;;;;;5080255;28;20037;-59
2023/01/27 09:32:14;;;;;;;3.75;1.90;;;;;;;;;;5087108;28;20501;-58
2023/01/27 09:34:40;;;;;;;6.20;2.65;;;;;;;;;;5082367;28;20094;-57
2023/01/27 09:37:10;;;;;;;4.68;2.42;;;;;;;;;;5085494;28;20040;-59
2023/01/27 09:39:40;;;;;;;5.10;2.30;;;;;;;;;;5083017;28;20076;-60
2023/01/27 09:42:26;;;;;;;4.18;2.35;;;;;;;;;;5088483;28;20040;-60
2023/01/27 09:45:00;;;;;;;5.05;2.60;;;;;;;;;;5083270;28;20033;-59
2023/01/27 09:47:47;;;;;;;6.53;2.58;;;;;;;;;;5085617;28;20463;-60
2023/01/27 09:50:13;;;;;;;6.78;2.47;;;;;;;;;;5081715;28;20036;-58
2023/01/27 09:52:57;;;;;;;4.75;2.30;;;;;;;;;;5084540;28;20056;-58
2023/01/27 09:55:29;;;;;;;6.18;2.65;;;;;;;;;;5082682;28;20123;-58
2023/01/27 09:58:09;;;;;;;4.20;2.47;;;;;;;;;;5082238;28;20051;-59
2023/01/27 10:00:45;;;;;;;5.38;2.60;;;;;;;;;;5085484;28;20142;-59
2023/01/27 10:03:32;;;;;;;5.72;2.75;;;;;;;;;;5084158;28;20047;-60
2023/01/27 10:06:06;;;;;;;4.90;2.47;;;;;;;;;;5072029;28;20048;-60
2023/01/27 10:08:55;;;;;;;4.13;2.50;;;;;;;;;;5084129;28;20150;-60
2023/01/27 10:11:40;;;;;;;8.02;3.13;;;;;;;;;;5071355;28;20449;-58
2023/01/27 10:14:06;;;;;;;;;;;;;;;;;;5086076;28;20043;-63
2023/01/27 10:16:55;;;;;;;3.85;2.50;;;;;;;;;;5081566;28;19923;-58
2023/01/27 10:19:24;;;;;;;5.90;4.65;;;;;;;;;;5083768;28;20044;-59
2023/01/27 10:22:07;;;;;;;4.93;2.92;;;;;;;;;;5084106;28;20127;-60
2023/01/27 10:24:45;;;;;;;4.72;2.60;;;;;;;;;;5078910;28;20492;-58
2023/01/27 10:27:21;;;;;;;4.85;3.10;;;;;;;;;;5083825;28;20047;-60
2023/01/27 10:29:56;;;;;;;6.65;2.90;;;;;;;;;;5084820;28;20040;-61
2023/01/27 10:32:22;;;;;;;;;;;;;;;;;;5084058;28;20032;-61
2023/01/27 10:34:54;;;;;;;5.45;2.70;;;;;;;;;;5080552;28;19923;-60
2023/01/27 10:37:39;;;;;;;7.97;3.00;;;;;;;;;;5084617;28;20050;-61
2023/01/27 10:40:32;;;;;;;5.63;3.22;;;;;;;;;;5080174;28;20055;-58
2023/01/27 10:43:23;;;;;;;4.60;2.95;;;;;;;;;;5080646;28;20047;-60
2023/01/27 10:46:04;;;;;;;6.72;3.30;;;;;;;;;;5087242;28;20040;-58
2023/01/27 10:48:36;;;;;;;7.28;2.88;;;;;;;;;;5085225;28;20039;-59
2023/01/27 10:51:08;;;;;;;4.15;2.50;;;;;;;;;;5084013;28;20119;-59
2023/01/27 10:53:38;;;;;;;5.68;2.88;;;;;;;;;;5081351;28;20036;-59
2023/01/27 10:56:11;;;;;;;5.03;2.88;;;;;;;;;;5081442;28;20039;-58
2023/01/27 10:58:49;;;;;;;6.75;3.05;;;;;;;;;;5080551;28;20040;-60
2023/01/27 11:01:17;;;;;;;3.80;2.72;;;;;;;;;;5080743;28;20040;-59
2023/01/27 11:03:47;;;;;;;4.13;2.67;;;;;;;;;;5083180;28;20042;-60
2023/01/27 11:06:18;;;;;;;3.30;2.53;;;;;;;;;;5078507;28;20106;-58
2023/01/27 11:08:46;;;;;;;5.78;2.20;;;;;;;;;;5083656;28;20067;-60
2023/01/27 11:14:03;;;;;;;3.38;2.47;;;;;;;;;;5080764;28;20132;-59
2023/01/27 11:16:34;;;;;;;3.80;2.10;;;;;;;;;;5080391;28;20171;-59
2023/01/27 11:19:03;;;;;;;4.03;2.10;;;;;;;;;;5083308;28;20047;-60
2023/01/27 11:21:30;;;;;;;2.25;1.70;;;;;;;;;;5064544;28;20040;-61
2023/01/27 11:23:59;;;;;;;2.90;1.90;;;;;;;;;;5083950;28;20036;-55
2023/01/27 11:26:42;;;;;;;3.47;2.20;;;;;;;;;;5082634;28;20051;-58
2023/01/27 11:29:17;;;;;;;4.00;2.22;;;;;;;;;;5083659;28;20036;-57
2023/01/27 11:31:53;;;;;;;3.67;2.25;;;;;;;;;;5082484;28;20348;-58
2023/01/27 11:34:32;;;;;;;4.38;2.03;;;;;;;;;;5079676;28;20465;-61
2023/01/27 11:36:59;;;;;;;5.80;2.40;;;;;;;;;;5082245;28;20036;-59
2023/01/27 11:39:28;;;;;;;3.38;2.20;;;;;;;;;;5083743;28;20052;-58
2023/01/27 11:41:55;;;;;;;3.50;2.50;;;;;;;;;;5080082;28;20453;-60
2023/01/27 11:44:23;;;;;;;3.08;2.50;;;;;;;;;;5078695;28;20059;-59
2023/01/27 11:46:50;;;;;;;4.07;2.30;;;;;;;;;;5079748;28;20036;-59
2023/01/27 11:49:18;;;;;;;2.85;2.50;;;;;;;;;;5082067;28;20047;-59
2023/01/27 11:51:44;;;;;;;3.92;2.40;;;;;;;;;;5083158;28;20048;-59
2023/01/27 11:54:13;;;;;;;4.95;2.10;;;;;;;;;;5079890;28;20033;-59
2023/01/27 11:56:40;;;;;;;3.92;2.53;;;;;;;;;;5080903;28;20451;-59
2023/01/27 11:59:14;;;;;;;3.75;2.40;;;;;;;;;;5081808;28;20068;-60
2023/01/27 12:01:45;;;;;;;5.97;2.40;;;;;;;;;;5082806;28;20036;-58
2023/01/27 12:04:11;;;;;;;4.20;2.53;;;;;;;;;;5079141;28;20036;-59
2023/01/27 12:06:44;;;;;;;4.10;2.50;;;;;;;;;;5080387;28;20046;-58
2023/01/27 12:09:28;;;;;;;4.00;2.58;;;;;;;;;;5080041;28;20446;-60
2023/01/27 12:12:10;;;;;;;4.10;2.72;;;;;;;;;;5077491;28;20368;-59
2023/01/27 12:14:36;;;;;;;4.72;2.78;;;;;;;;;;5075975;28;20064;-60
2023/01/27 12:17:03;;;;;;;4.30;3.03;;;;;;;;;;5047385;28;20130;-58
2023/01/27 12:19:34;;;;;;;3.30;2.20;;;;;;;;;;5075517;28;20040;-59
2023/01/27 12:22:09;;;;;;;4.88;2.15;;;;;;;;;;5075989;28;20088;-58
2023/01/27 12:24:38;;;;;;;3.90;2.55;;;;;;;;;;5076785;28;20448;-57
2023/01/27 12:27:05;;;;;;;5.15;2.63;;;;;;;;;;5081953;28;20029;-58
2023/01/27 12:29:30;;;;;;;4.20;2.75;;;;;;;;;;5079716;28;20036;-59
2023/01/27 12:31:58;;;;;;;4.10;2.35;;;;;;;;;;5080311;28;20051;-59
2023/01/27 12:34:32;;;;;;;3.70;2.55;;;;;;;;;;5078766;28;20052;-57
2023/01/27 12:36:59;;;;;;;3.42;2.30;;;;;;;;;;5079338;28;20435;-56
2023/01/27 12:39:41;;;;;;;3.08;2.20;;;;;;;;;;5082202;28;20131;-57
2023/01/27 12:42:26;;;;;;;4.32;2.30;;;;;;;;;;5081717;28;20040;-60
2023/01/27 12:45:03;;;;;;;3.13;2.20;;;;;;;;;;5075947;28;20040;-58
2023/01/27 12:47:30;;;;;;;3.83;2.67;;;;;;;;;;5080815;28;20064;-60
2023/01/27 12:50:20;;;;;;;5.70;2.70;;;;;;;;;;5083357;28;20055;-58
2023/01/27 12:53:05;;;;;;;3.80;2.35;;;;;;;;;;5080028;28;20052;-60
2023/01/27 12:55:57;;;;;;;4.15;2.40;;;;;;;;;;5074586;28;20032;-58
2023/01/27 12:58:42;;;;;;;4.55;2.45;;;;;;;;;;5039481;28;20052;-58
2023/01/27 13:01:20;;;;;;;3.67;2.20;;;;;;;;;;5081357;28;20043;-57
2023/01/27 13:03:48;;;;;;;4.72;2.42;;;;;;;;;;5080218;28;20112;-58
2023/01/27 13:06:18;;;;;;;3.50;2.05;;;;;;;;;;5080552;28;20110;-58
2023/01/27 13:08:45;;;;;;;4.78;2.13;;;;;;;;;;5086073;28;20036;-57
2023/01/27 13:11:11;;;;;;;4.55;2.22;;;;;;;;;;5084616;28;20123;-58
2023/01/27 13:13:48;;;;;;;3.03;2.03;;;;;;;;;;5078578;28;20052;-60
2023/01/27 13:16:16;;;;;;;3.15;2.00;;;;;;;;;;5078752;28;20044;-59
2023/01/27 13:18:42;;;;;;;5.03;2.00;;;;;;;;;;5080357;28;20068;-59
2023/01/27 13:21:18;;;;;;;3.17;2.38;;;;;;;;;;5080907;28;20040;-59
2023/01/27 13:23:45;;;;;;;5.07;2.45;;;;;;;;;;5044574;28;20049;-58
2023/01/27 13:26:24;;;;;;;2.60;2.05;;;;;;;;;;5079440;28;20096;-57
2023/01/27 13:28:53;;;;;;;2.83;2.05;;;;;;;;;;5082197;28;20052;-59
2023/01/27 13:31:38;;;;;;;3.60;2.80;;;;;;;;;;5080122;28;20040;-60
2023/01/27 13:34:23;;;;;;;3.53;2.10;;;;;;;;;;5077231;28;20090;-58
2023/01/27 13:36:51;;;;;;;4.10;2.20;;;;;;;;;;5080371;28;20040;-57
2023/01/27 13:39:36;;;;;;;2.83;1.90;;;;;;;;;;5080895;28;20483;-57
2023/01/27 13:42:05;;;;;;;4.25;2.10;;;;;;;;;;5076703;28;20028;-56
2023/01/27 13:44:55;;;;;;;3.83;2.58;;;;;;;;;;5079883;28;20059;-58
2023/01/27 13:47:36;;;;;;;2.70;1.95;;;;;;;;;;5080776;28;20112;-59
2023/01/27 13:50:09;;;;;;;4.05;1.80;;;;;;;;;;5081563;28;20111;-57
2023/01/27 13:52:37;;;;;;;2.38;2.00;;;;;;;;;;5080437;28;20046;-58
2023/01/27 13:55:03;;;;;;;2.45;1.90;;;;;;;;;;5079469;28;20040;-57
2023/01/27 13:57:28;;;;;;;3.00;1.70;;;;;;;;;;5080119;28;20032;-57
2023/01/27 14:00:18;;;;;;;3.70;1.80;;;;;;;;;;5077164;28;20054;-60
2023/01/27 14:02:57;;;;;;;1.85;1.63;;;;;;;;;;5082331;28;20041;-56
2023/01/27 14:05:23;;;;;;;2.25;1.75;;;;;;;;;;5079091;28;20040;-56
2023/01/27 14:07:51;;;;;;;1.90;1.67;;;;;;;;;;5083073;28;20123;-59
2023/01/27 14:10:28;;;;;;;3.38;1.65;;;;;;;;;;5080586;28;20133;-58
2023/01/27 14:13:03;;;;;;;2.10;1.60;;;;;;;;;;5077117;28;20128;-59
2023/01/27 14:15:49;;;;;;;3.70;1.70;;;;;;;;;;5076579;28;20044;-59
2023/01/27 14:18:28;;;;;;;3.05;1.98;;;;;;;;;;5064598;28;20452;-60
2023/01/27 14:21:00;;;;;;;3.45;2.75;;;;;;;;;;5081976;28;20032;-58
2023/01/27 14:23:34;;;;;;;2.88;1.90;;;;;;;;;;5084904;28;20813;-59
2023/01/27 14:26:13;;;;;;;2.78;2.13;;;;;;;;;;5084369;28;20111;-60
2023/01/27 14:28:57;;;;;;;4.25;2.50;;;;;;;;;;5086953;28;20350;-58
2023/01/27 14:31:29;;;;;;;2.72;2.20;;;;;;;;;;5085727;28;20102;-58
2023/01/27 14:34:00;;;;;;;3.30;2.20;;;;;;;;;;5080858;28;20075;-58
2023/01/27 14:36:29;;;;;;;4.53;3.28;;;;;;;;;;5077304;28;20060;-58
2023/01/27 14:39:01;;;;;;;4.05;2.50;;;;;;;;;;5079799;28;20099;-59
2023/01/27 14:41:34;;;;;;;2.90;2.13;;;;;;;;;;5086205;28;20058;-59
2023/01/27 14:44:00;;;;;;;2.55;2.20;;;;;;;;;;5083553;28;20033;-59
2023/01/27 14:46:28;;;;;;;2.33;1.80;;;;;;;;;;5080749;28;20469;-56
2023/01/27 14:49:13;;;;;;;2.35;1.75;;;;;;;;;;5082738;28;20028;-58
2023/01/27 14:51:39;;;;;;;;;;;;;;;;;;5082002;28;20068;-57
2023/01/27 14:54:24;;;;;;;2.20;1.80;;;;;;;;;;5083616;28;20378;-59
2023/01/27 14:57:09;;;;;;;2.13;1.85;;;;;;;;;;5082083;28;20086;-57
2023/01/27 14:59:47;;;;;;;2.40;2.05;;;;;;;;;;5080547;28;20083;-59
2023/01/27 15:02:25;;;;;;;2.72;1.80;;;;;;;;;;5081418;28;20034;-57
2023/01/27 15:04:58;;;;;;;2.45;1.90;;;;;;;;;;5080429;28;20079;-58
2023/01/27 15:07:27;;;;;;;3.42;2.20;;;;;;;;;;5083862;28;20036;-58
2023/01/27 15:09:56;;;;;;;2.08;1.88;;;;;;;;;;5081221;28;20135;-58
2023/01/27 15:12:43;;;;;;;2.92;2.10;;;;;;;;;;5083606;28;20105;-58
2023/01/27 15:15:23;;;;;;;5.63;3.05;;;;;;;;;;5080962;28;20040;-58
2023/01/27 15:17:52;;;;;;;2.28;1.80;;;;;;;;;;5082505;28;20040;-59
2023/01/27 15:20:36;;;;;;;3.38;2.08;;;;;;;;;;5082651;28;20046;-59
2023/01/27 15:23:08;;;;;;;2.10;1.63;;;;;;;;;;5063151;28;20355;-59
2023/01/27 15:25:39;;;;;;;3.33;1.90;;;;;;;;;;5074957;28;20036;-59
2023/01/27 15:28:10;;;;;;;2.60;1.70;;;;;;;;;;5059892;28;20115;-58
2023/01/27 15:30:37;;;;;;;2.78;2.20;;;;;;;;;;5080467;28;20028;-59
2023/01/27 15:33:23;;;;;;;2.67;2.10;;;;;;;;;;5082763;28;20047;-57
2023/01/27 15:35:49;;;;;;;2.38;1.98;;;;;;;;;;5079383;28;20036;-57
2023/01/27 15:38:19;;;;;;;2.75;2.30;;;;;;;;;;5082752;28;20029;-59